sensor_id;sensor_type;location;lat;lon;timestamp;pressure;altitude;pressure_sealevel;temperature;humidity
5298;BME280;14738;42.668;23.250;2023-12-20T00:02:07;48725.81;;;-141.90;100.00
5298;BME280;14738;42.668;23.250;2023-12-20T00:04:33;48735.75;;;-141.90;100.00
5298;BME280;14738;42.668;23.250;2023-12-20T00:06:58;48717.88;;;-141.90;100.00
5298;BME280;14738;42.668;23.250;2023-12-20T00:09:23;48751.63;;;-141.90;100.00
5298;BME280;14738;42.668;23.250;2023-12-20T00:11:49;48763.53;;;-141.90;100.00
5298;BME280;14738;42.668;23.250;2023-12-20T00:14:14;48743.69;;;-141.90;100.00
5298;BME280;14738;42.668;23.250;2023-12-20T00:16:40;48743.69;;;-141.90;100.00
5298;BME280;14738;42.668;23.250;2023-12-20T00:19:05;48723.84;;;-141.90;100.00
5298;BME280;14738;42.668;23.250;2023-12-20T00:21:30;48771.47;;;-141.90;100.00
5298;BME280;14738;42.668;23.250;2023-12-20T00:23:56;48739.72;;;-141.90;100.00
5298;BME280;14738;42.668;23.250;2023-12-20T00:26:21;48735.75;;;-141.90;100.00
5298;BME280;14738;42.668;23.250;2023-12-20T00:28:46;48737.72;;;-141.90;100.00
5298;BME280;14738;42.668;23.250;2023-12-20T00:31:12;48741.69;;;-141.90;100.00
5298;BME280;14738;42.668;23.250;2023-12-20T00:33:37;48719.88;;;-141.90;100.00
5298;BME280;14738;42.668;23.250;2023-12-20T00:36:05;48721.84;;;-141.90;100.00
5298;BME280;14738;42.668;23.250;2023-12-20T00:38:30;48743.69;;;-141.90;100.00
5298;BME280;14738;42.668;23.250;2023-12-20T00:40:56;48747.66;;;-141.90;100.00
5298;BME280;14738;42.668;23.250;2023-12-20T00:43:21;48743.69;;;-141.90;100.00
5298;BME280;14738;42.668;23.250;2023-12-20T00:45:46;48723.84;;;-141.90;100.00
5298;BME280;14738;42.668;23.250;2023-12-20T00:48:12;48743.69;;;-141.90;100.00
5298;BME280;14738;42.668;23.250;2023-12-20T00:50:37;48723.84;;;-141.90;100.00
5298;BME280;14738;42.668;23.250;2023-12-20T00:53:03;48717.88;;;-141.90;100.00
5298;BME280;14738;42.668;23.250;2023-12-20T00:55:28;48717.88;;;-141.90;100.00
5298;BME280;14738;42.668;23.250;2023-12-20T00:57:53;48747.66;;;-141.90;100.00
5298;BME280;14738;42.668;23.250;2023-12-20T01:00:19;48739.72;;;-141.90;100.00
5298;BME280;14738;42.668;23.250;2023-12-20T01:02:44;48765.53;;;-141.90;100.00
5298;BME280;14738;42.668;23.250;2023-12-20T01:05:12;48727.81;;;-141.90;100.00
5298;BME280;14738;42.668;23.250;2023-12-20T01:07:37;48707.94;;;-141.90;100.00
5298;BME280;14738;42.668;23.250;2023-12-20T01:10:03;48737.72;;;-141.90;100.00
5298;BME280;14738;42.668;23.250;2023-12-20T01:12:28;48739.72;;;-141.90;100.00
5298;BME280;14738;42.668;23.250;2023-12-20T01:14:53;48721.84;;;-141.90;100.00
5298;BME280;14738;42.668;23.250;2023-12-20T01:17:19;48743.69;;;-141.90;100.00
5298;BME280;14738;42.668;23.250;2023-12-20T01:19:44;48777.44;;;-141.90;100.00
5298;BME280;14738;42.668;23.250;2023-12-20T01:22:09;48729.78;;;-141.90;100.00
5298;BME280;14738;42.668;23.250;2023-12-20T01:24:35;48727.81;;;-141.90;100.00
5298;BME280;14738;42.668;23.250;2023-12-20T01:27:00;48767.50;;;-141.90;100.00
5298;BME280;14738;42.668;23.250;2023-12-20T01:29:25;48769.50;;;-141.90;100.00
5298;BME280;14738;42.668;23.250;2023-12-20T01:31:51;48735.75;;;-141.90;100.00
5298;BME280;14738;42.668;23.250;2023-12-20T01:34:17;48737.72;;;-141.90;100.00
5298;BME280;14738;42.668;23.250;2023-12-20T01:36:42;48763.53;;;-141.90;100.00
5298;BME280;14738;42.668;23.250;2023-12-20T01:39:08;48727.81;;;-141.90;100.00
5298;BME280;14738;42.668;23.250;2023-12-20T01:41:33;48733.75;;;-141.90;100.00
5298;BME280;14738;42.668;23.250;2023-12-20T01:43:59;48694.06;;;-141.90;100.00
5298;BME280;14738;42.668;23.250;2023-12-20T01:46:24;48733.75;;;-141.90;100.00
5298;BME280;14738;42.668;23.250;2023-12-20T01:48:51;48739.72;;;-141.90;100.00
5298;BME280;14738;42.668;23.250;2023-12-20T01:51:16;48723.84;;;-141.90;100.00
5298;BME280;14738;42.668;23.250;2023-12-20T01:53:43;48731.78;;;-141.90;100.00
5298;BME280;14738;42.668;23.250;2023-12-20T01:56:09;48743.69;;;-141.90;100.00
5298;BME280;14738;42.668;23.250;2023-12-20T01:58:42;48743.69;;;-141.90;100.00
5298;BME280;14738;42.668;23.250;2023-12-20T02:01:09;48733.75;;;-141.90;100.00
5298;BME280;14738;42.668;23.250;2023-12-20T02:03:34;48735.75;;;-141.90;100.00
5298;BME280;14738;42.668;23.250;2023-12-20T02:06:02;48747.66;;;-141.90;100.00
5298;BME280;14738;42.668;23.250;2023-12-20T02:08:28;48749.66;;;-141.90;100.00
5298;BME280;14738;42.668;23.250;2023-12-20T02:10:54;48767.50;;;-141.90;100.00
5298;BME280;14738;42.668;23.250;2023-12-20T02:13:20;48707.94;;;-141.90;100.00
5298;BME280;14738;42.668;23.250;2023-12-20T02:15:46;48751.63;;;-141.90;100.00
5298;BME280;14738;42.668;23.250;2023-12-20T02:18:11;48783.41;;;-141.90;100.00
5298;BME280;14738;42.668;23.250;2023-12-20T02:20:40;48747.66;;;-141.90;100.00
5298;BME280;14738;42.668;23.250;2023-12-20T02:23:06;48747.66;;;-141.90;100.00
5298;BME280;14738;42.668;23.250;2023-12-20T02:25:31;48753.63;;;-141.90;100.00
5298;BME280;14738;42.668;23.250;2023-12-20T02:27:57;48757.59;;;-141.90;100.00
5298;BME280;14738;42.668;23.250;2023-12-20T02:30:22;48735.75;;;-141.90;100.00
5298;BME280;14738;42.668;23.250;2023-12-20T02:32:49;48763.53;;;-141.90;100.00
5298;BME280;14738;42.668;23.250;2023-12-20T02:35:15;48743.69;;;-141.90;100.00
5298;BME280;14738;42.668;23.250;2023-12-20T02:37:40;48747.66;;;-141.90;100.00
5298;BME280;14738;42.668;23.250;2023-12-20T02:40:06;48753.63;;;-141.90;100.00
5298;BME280;14738;42.668;23.250;2023-12-20T02:42:32;48735.75;;;-141.90;100.00
5298;BME280;14738;42.668;23.250;2023-12-20T02:44:57;48757.59;;;-141.90;100.00
5298;BME280;14738;42.668;23.250;2023-12-20T02:47:23;48771.47;;;-141.90;100.00
5298;BME280;14738;42.668;23.250;2023-12-20T02:49:48;48747.66;;;-141.90;100.00
5298;BME280;14738;42.668;23.250;2023-12-20T02:52:14;48737.72;;;-141.90;100.00
5298;BME280;14738;42.668;23.250;2023-12-20T02:54:39;48763.53;;;-141.90;100.00
5298;BME280;14738;42.668;23.250;2023-12-20T02:57:05;48743.69;;;-141.90;100.00
5298;BME280;14738;42.668;23.250;2023-12-20T02:59:30;48769.50;;;-141.90;100.00
5298;BME280;14738;42.668;23.250;2023-12-20T03:01:56;48751.63;;;-141.90;100.00
5298;BME280;14738;42.668;23.250;2023-12-20T03:04:21;48751.63;;;-141.90;100.00
5298;BME280;14738;42.668;23.250;2023-12-20T03:06:47;48741.69;;;-141.90;100.00
5298;BME280;14738;42.668;23.250;2023-12-20T03:09:12;48769.50;;;-141.90;100.00
5298;BME280;14738;42.668;23.250;2023-12-20T03:11:37;48735.75;;;-141.90;100.00
5298;BME280;14738;42.668;23.250;2023-12-20T03:14:03;48787.38;;;-141.90;100.00
5298;BME280;14738;42.668;23.250;2023-12-20T03:16:28;48763.53;;;-141.90;100.00
5298;BME280;14738;42.668;23.250;2023-12-20T03:18:53;48751.63;;;-141.90;100.00
5298;BME280;14738;42.668;23.250;2023-12-20T03:21:19;48783.41;;;-141.90;100.00
5298;BME280;14738;42.668;23.250;2023-12-20T03:23:45;48725.81;;;-141.90;100.00
5298;BME280;14738;42.668;23.250;2023-12-20T03:26:10;48743.69;;;-141.90;100.00
5298;BME280;14738;42.668;23.250;2023-12-20T03:28:36;48755.59;;;-141.90;100.00
5298;BME280;14738;42.668;23.250;2023-12-20T03:31:02;48749.66;;;-141.90;100.00
5298;BME280;14738;42.668;23.250;2023-12-20T03:33:27;48743.69;;;-141.90;100.00
5298;BME280;14738;42.668;23.250;2023-12-20T03:35:53;48751.63;;;-141.90;100.00
5298;BME280;14738;42.668;23.250;2023-12-20T03:38:18;48727.81;;;-141.90;100.00
5298;BME280;14738;42.668;23.250;2023-12-20T03:40:44;48751.63;;;-141.90;100.00
5298;BME280;14738;42.668;23.250;2023-12-20T03:43:09;48757.59;;;-141.90;100.00
5298;BME280;14738;42.668;23.250;2023-12-20T03:45:35;48771.47;;;-141.90;100.00
5298;BME280;14738;42.668;23.250;2023-12-20T03:48:00;48743.69;;;-141.90;100.00
5298;BME280;14738;42.668;23.250;2023-12-20T03:50:26;48735.75;;;-141.90;100.00
5298;BME280;14738;42.668;23.250;2023-12-20T03:52:52;48763.53;;;-141.90;100.00
5298;BME280;14738;42.668;23.250;2023-12-20T03:55:17;48751.63;;;-141.90;100.00
5298;BME280;14738;42.668;23.250;2023-12-20T03:57:43;48743.69;;;-141.90;100.00
5298;BME280;14738;42.668;23.250;2023-12-20T04:00:09;48743.69;;;-141.90;100.00
5298;BME280;14738;42.668;23.250;2023-12-20T04:02:39;48761.56;;;-141.90;100.00
5298;BME280;14738;42.668;23.250;2023-12-20T04:05:05;48737.72;;;-141.90;100.00
5298;BME280;14738;42.668;23.250;2023-12-20T04:07:31;48751.63;;;-141.90;100.00
5298;BME280;14738;42.668;23.250;2023-12-20T04:09:57;48731.78;;;-141.90;100.00
5298;BME280;14738;42.668;23.250;2023-12-20T04:12:22;48763.53;;;-141.90;100.00
5298;BME280;14738;42.668;23.250;2023-12-20T04:14:47;48773.47;;;-141.90;100.00
5298;BME280;14738;42.668;23.250;2023-12-20T04:17:13;48775.47;;;-141.90;100.00
5298;BME280;14738;42.668;23.250;2023-12-20T04:19:41;48785.38;;;-141.90;100.00
5298;BME280;14738;42.668;23.250;2023-12-20T04:22:06;48753.63;;;-141.90;100.00
5298;BME280;14738;42.668;23.250;2023-12-20T04:24:31;48767.50;;;-141.90;100.00
5298;BME280;14738;42.668;23.250;2023-12-20T04:26:57;48775.47;;;-141.90;100.00
5298;BME280;14738;42.668;23.250;2023-12-20T04:29:22;48787.38;;;-141.90;100.00
5298;BME280;14738;42.668;23.250;2023-12-20T04:31:47;48775.47;;;-141.90;100.00
5298;BME280;14738;42.668;23.250;2023-12-20T04:34:13;48777.44;;;-141.90;100.00
5298;BME280;14738;42.668;23.250;2023-12-20T04:36:38;48739.72;;;-141.90;100.00
5298;BME280;14738;42.668;23.250;2023-12-20T04:39:03;48783.41;;;-141.90;100.00
5298;BME280;14738;42.668;23.250;2023-12-20T04:41:29;48753.63;;;-141.90;100.00
5298;BME280;14738;42.668;23.250;2023-12-20T04:43:55;48787.38;;;-141.90;100.00
5298;BME280;14738;42.668;23.250;2023-12-20T04:46:21;48751.63;;;-141.90;100.00
5298;BME280;14738;42.668;23.250;2023-12-20T04:48:46;48795.31;;;-141.90;100.00
5298;BME280;14738;42.668;23.250;2023-12-20T04:51:11;48779.44;;;-141.90;100.00
5298;BME280;14738;42.668;23.250;2023-12-20T04:53:37;48783.41;;;-141.90;100.00
5298;BME280;14738;42.668;23.250;2023-12-20T04:56:02;48747.66;;;-141.90;100.00
5298;BME280;14738;42.668;23.250;2023-12-20T04:58:28;48761.56;;;-141.90;100.00
5298;BME280;14738;42.668;23.250;2023-12-20T05:00:53;48739.72;;;-141.90;100.00
5298;BME280;14738;42.668;23.250;2023-12-20T05:03:18;48779.44;;;-141.90;100.00
5298;BME280;14738;42.668;23.250;2023-12-20T05:05:44;48767.50;;;-141.90;100.00
5298;BME280;14738;42.668;23.250;2023-12-20T05:08:09;48739.72;;;-141.90;100.00
5298;BME280;14738;42.668;23.250;2023-12-20T05:10:35;48791.34;;;-141.90;100.00
5298;BME280;14738;42.668;23.250;2023-12-20T05:13:01;48767.50;;;-141.90;100.00
5298;BME280;14738;42.668;23.250;2023-12-20T05:15:27;48781.41;;;-141.90;100.00
5298;BME280;14738;42.668;23.250;2023-12-20T05:17:52;48783.41;;;-141.90;100.00
5298;BME280;14738;42.668;23.250;2023-12-20T05:20:17;48751.63;;;-141.90;100.00
5298;BME280;14738;42.668;23.250;2023-12-20T05:22:43;48775.47;;;-141.90;100.00
5298;BME280;14738;42.668;23.250;2023-12-20T05:25:10;48767.50;;;-141.90;100.00
5298;BME280;14738;42.668;23.250;2023-12-20T05:27:35;48781.41;;;-141.90;100.00
5298;BME280;14738;42.668;23.250;2023-12-20T05:30:00;48771.47;;;-141.90;100.00
5298;BME280;14738;42.668;23.250;2023-12-20T05:32:26;48775.47;;;-141.90;100.00
5298;BME280;14738;42.668;23.250;2023-12-20T05:34:51;48783.41;;;-141.90;100.00
5298;BME280;14738;42.668;23.250;2023-12-20T05:37:16;48767.50;;;-141.90;100.00
5298;BME280;14738;42.668;23.250;2023-12-20T05:39:42;48789.34;;;-141.90;100.00
5298;BME280;14738;42.668;23.250;2023-12-20T05:42:07;48743.69;;;-141.90;100.00
5298;BME280;14738;42.668;23.250;2023-12-20T05:44:33;48771.47;;;-141.90;100.00
5298;BME280;14738;42.668;23.250;2023-12-20T05:46:58;48795.31;;;-141.90;100.00
5298;BME280;14738;42.668;23.250;2023-12-20T05:49:24;48781.41;;;-141.90;100.00
5298;BME280;14738;42.668;23.250;2023-12-20T05:51:50;48795.31;;;-141.90;100.00
5298;BME280;14738;42.668;23.250;2023-12-20T05:54:16;48775.47;;;-141.90;100.00
5298;BME280;14738;42.668;23.250;2023-12-20T05:56:41;48771.47;;;-141.90;100.00
5298;BME280;14738;42.668;23.250;2023-12-20T05:59:07;48767.50;;;-141.90;100.00
5298;BME280;14738;42.668;23.250;2023-12-20T06:01:32;48761.56;;;-141.90;100.00
5298;BME280;14738;42.668;23.250;2023-12-20T06:03:57;48727.81;;;-141.90;100.00
5298;BME280;14738;42.668;23.250;2023-12-20T06:06:23;48745.69;;;-141.90;100.00
5298;BME280;14738;42.668;23.250;2023-12-20T06:08:49;48787.38;;;-141.90;100.00
5298;BME280;14738;42.668;23.250;2023-12-20T06:11:14;48779.44;;;-141.90;100.00
5298;BME280;14738;42.668;23.250;2023-12-20T06:13:40;48771.47;;;-141.90;100.00
5298;BME280;14738;42.668;23.250;2023-12-20T06:16:06;48753.63;;;-141.90;100.00
5298;BME280;14738;42.668;23.250;2023-12-20T06:18:34;48779.44;;;-141.90;100.00
5298;BME280;14738;42.668;23.250;2023-12-20T06:21:01;48783.41;;;-141.90;100.00
5298;BME280;14738;42.668;23.250;2023-12-20T06:23:27;48787.38;;;-141.90;100.00
5298;BME280;14738;42.668;23.250;2023-12-20T06:25:53;48771.47;;;-141.90;100.00
5298;BME280;14738;42.668;23.250;2023-12-20T06:28:18;48763.53;;;-141.90;100.00
5298;BME280;14738;42.668;23.250;2023-12-20T06:30:43;48753.63;;;-141.90;100.00
5298;BME280;14738;42.668;23.250;2023-12-20T06:33:09;48755.59;;;-141.90;100.00
5298;BME280;14738;42.668;23.250;2023-12-20T06:35:36;48775.47;;;-141.90;100.00
5298;BME280;14738;42.668;23.250;2023-12-20T06:38:02;48719.88;;;-141.90;100.00
5298;BME280;14738;42.668;23.250;2023-12-20T06:40:27;48735.75;;;-141.90;100.00
5298;BME280;14738;42.668;23.250;2023-12-20T06:42:52;48767.50;;;-141.90;100.00
5298;BME280;14738;42.668;23.250;2023-12-20T06:45:18;48779.44;;;-141.90;100.00
5298;BME280;14738;42.668;23.250;2023-12-20T06:47:43;48741.69;;;-141.90;100.00
5298;BME280;14738;42.668;23.250;2023-12-20T06:50:09;48787.38;;;-141.90;100.00
5298;BME280;14738;42.668;23.250;2023-12-20T06:52:34;48745.69;;;-141.90;100.00
5298;BME280;14738;42.668;23.250;2023-12-20T06:55:01;48763.53;;;-141.90;100.00
5298;BME280;14738;42.668;23.250;2023-12-20T06:57:26;48767.50;;;-141.90;100.00
5298;BME280;14738;42.668;23.250;2023-12-20T06:59:53;48727.81;;;-141.90;100.00
5298;BME280;14738;42.668;23.250;2023-12-20T07:02:18;48755.59;;;-141.90;100.00
5298;BME280;14738;42.668;23.250;2023-12-20T07:04:44;48757.59;;;-141.90;100.00
5298;BME280;14738;42.668;23.250;2023-12-20T07:07:09;48765.53;;;-141.90;100.00
5298;BME280;14738;42.668;23.250;2023-12-20T07:09:34;48747.66;;;-141.90;100.00
5298;BME280;14738;42.668;23.250;2023-12-20T07:12:00;48767.50;;;-141.90;100.00
5298;BME280;14738;42.668;23.250;2023-12-20T07:14:25;48715.91;;;-141.90;100.00
5298;BME280;14738;42.668;23.250;2023-12-20T07:16:51;48749.66;;;-141.90;100.00
5298;BME280;14738;42.668;23.250;2023-12-20T07:19:16;48703.97;;;-141.90;100.00
5298;BME280;14738;42.668;23.250;2023-12-20T07:21:42;48729.78;;;-141.90;100.00
5298;BME280;14738;42.668;23.250;2023-12-20T07:24:07;48723.84;;;-141.90;100.00
5298;BME280;14738;42.668;23.250;2023-12-20T07:26:33;48713.91;;;-141.90;100.00
5298;BME280;14738;42.668;23.250;2023-12-20T07:28:59;48721.84;;;-141.90;100.00
5298;BME280;14738;42.668;23.250;2023-12-20T07:31:24;48737.72;;;-141.90;100.00
5298;BME280;14738;42.668;23.250;2023-12-20T07:33:50;48725.81;;;-141.90;100.00
5298;BME280;14738;42.668;23.250;2023-12-20T07:36:15;48735.75;;;-141.90;100.00
5298;BME280;14738;42.668;23.250;2023-12-20T07:38:40;48703.97;;;-141.90;100.00
5298;BME280;14738;42.668;23.250;2023-12-20T07:41:09;48692.06;;;-141.90;100.00
5298;BME280;14738;42.668;23.250;2023-12-20T07:43:34;48729.78;;;-141.90;100.00
5298;BME280;14738;42.668;23.250;2023-12-20T07:46:07;48719.88;;;-141.90;100.00
5298;BME280;14738;42.668;23.250;2023-12-20T07:48:34;48747.66;;;-141.90;100.00
5298;BME280;14738;42.668;23.250;2023-12-20T07:51:00;48713.91;;;-141.90;100.00
5298;BME280;14738;42.668;23.250;2023-12-20T07:53:26;48725.81;;;-141.90;100.00
5298;BME280;14738;42.668;23.250;2023-12-20T07:55:52;48715.91;;;-141.90;100.00
5298;BME280;14738;42.668;23.250;2023-12-20T07:58:18;48747.66;;;-141.90;100.00
5298;BME280;14738;42.668;23.250;2023-12-20T08:00:43;48753.63;;;-141.90;100.00
5298;BME280;14738;42.668;23.250;2023-12-20T08:03:11;48703.97;;;-141.90;100.00
5298;BME280;14738;42.668;23.250;2023-12-20T08:05:37;48707.94;;;-141.90;100.00
5298;BME280;14738;42.668;23.250;2023-12-20T08:08:04;48702.00;;;-141.90;100.00
5298;BME280;14738;42.668;23.250;2023-12-20T08:10:30;48707.94;;;-141.90;100.00
5298;BME280;14738;42.668;23.250;2023-12-20T08:12:55;48703.97;;;-141.90;100.00
5298;BME280;14738;42.668;23.250;2023-12-20T08:15:21;48676.19;;;-141.90;100.00
5298;BME280;14738;42.668;23.250;2023-12-20T08:17:47;48682.13;;;-141.90;100.00
5298;BME280;14738;42.668;23.250;2023-12-20T08:20:12;48682.13;;;-141.90;100.00
5298;BME280;14738;42.668;23.250;2023-12-20T08:22:38;48688.09;;;-141.90;100.00
5298;BME280;14738;42.668;23.250;2023-12-20T08:25:04;48688.09;;;-141.90;100.00
5298;BME280;14738;42.668;23.250;2023-12-20T08:27:29;48666.25;;;-141.90;100.00
5298;BME280;14738;42.668;23.250;2023-12-20T08:29:57;48682.13;;;-141.90;100.00
5298;BME280;14738;42.668;23.250;2023-12-20T08:32:25;48670.22;;;-141.90;100.00
5298;BME280;14738;42.668;23.250;2023-12-20T08:34:51;48682.13;;;-141.90;100.00
5298;BME280;14738;42.668;23.250;2023-12-20T08:37:17;48700.00;;;-141.90;100.00
5298;BME280;14738;42.668;23.250;2023-12-20T08:39:43;48664.28;;;-141.90;100.00
5298;BME280;14738;42.668;23.250;2023-12-20T08:42:09;48696.03;;;-141.90;100.00
5298;BME280;14738;42.668;23.250;2023-12-20T08:44:34;48676.19;;;-141.90;100.00
5298;BME280;14738;42.668;23.250;2023-12-20T08:47:00;48688.09;;;-141.90;100.00
5298;BME280;14738;42.668;23.250;2023-12-20T08:49:25;48698.03;;;-141.90;100.00
5298;BME280;14738;42.668;23.250;2023-12-20T08:51:50;48688.09;;;-141.90;100.00
5298;BME280;14738;42.668;23.250;2023-12-20T08:54:16;48676.19;;;-141.90;100.00
5298;BME280;14738;42.668;23.250;2023-12-20T08:56:42;48690.09;;;-141.90;100.00
5298;BME280;14738;42.668;23.250;2023-12-20T08:59:08;48662.28;;;-141.90;100.00
5298;BME280;14738;42.668;23.250;2023-12-20T09:01:34;48682.13;;;-141.90;100.00
5298;BME280;14738;42.668;23.250;2023-12-20T09:04:00;48664.28;;;-141.90;100.00
5298;BME280;14738;42.668;23.250;2023-12-20T09:06:25;48682.13;;;-141.90;100.00
5298;BME280;14738;42.668;23.250;2023-12-20T09:08:51;48680.16;;;-141.90;100.00
5298;BME280;14738;42.668;23.250;2023-12-20T09:11:17;48690.09;;;-141.90;100.00
5298;BME280;14738;42.668;23.250;2023-12-20T09:13:43;48676.19;;;-141.90;100.00
5298;BME280;14738;42.668;23.250;2023-12-20T09:16:09;48646.41;;;-141.90;100.00
5298;BME280;14738;42.668;23.250;2023-12-20T09:18:35;48668.25;;;-141.90;100.00
5298;BME280;14738;42.668;23.250;2023-12-20T09:21:00;48672.22;;;-141.90;100.00
5298;BME280;14738;42.668;23.250;2023-12-20T09:23:25;48648.38;;;-141.90;100.00
5298;BME280;14738;42.668;23.250;2023-12-20T09:25:51;48646.41;;;-141.90;100.00
5298;BME280;14738;42.668;23.250;2023-12-20T09:28:16;48688.09;;;-141.90;100.00
5298;BME280;14738;42.668;23.250;2023-12-20T09:30:42;48684.13;;;-141.90;100.00
5298;BME280;14738;42.668;23.250;2023-12-20T09:33:07;48656.34;;;-141.90;100.00
5298;BME280;14738;42.668;23.250;2023-12-20T09:35:33;48662.28;;;-141.90;100.00
5298;BME280;14738;42.668;23.250;2023-12-20T09:37:58;48676.19;;;-141.90;100.00
5298;BME280;14738;42.668;23.250;2023-12-20T09:40:26;48654.34;;;-141.90;100.00
5298;BME280;14738;42.668;23.250;2023-12-20T09:42:57;48650.38;;;-141.90;100.00
5298;BME280;14738;42.668;23.250;2023-12-20T09:45:23;48644.41;;;-141.90;100.00
5298;BME280;14738;42.668;23.250;2023-12-20T09:47:53;48640.44;;;-141.90;100.00
5298;BME280;14738;42.668;23.250;2023-12-20T09:50:20;48652.38;;;-141.90;100.00
5298;BME280;14738;42.668;23.250;2023-12-20T09:52:49;48640.44;;;-141.90;100.00
5298;BME280;14738;42.668;23.250;2023-12-20T09:55:17;48644.41;;;-141.90;100.00
5298;BME280;14738;42.668;23.250;2023-12-20T09:57:42;48612.66;;;-141.90;100.00
5298;BME280;14738;42.668;23.250;2023-12-20T10:00:08;48604.72;;;-141.90;100.00
5298;BME280;14738;42.668;23.250;2023-12-20T10:02:35;48616.63;;;-141.90;100.00
5298;BME280;14738;42.668;23.250;2023-12-20T10:05:06;48628.53;;;-141.90;100.00
5298;BME280;14738;42.668;23.250;2023-12-20T10:07:34;48654.34;;;-141.90;100.00
5298;BME280;14738;42.668;23.250;2023-12-20T10:10:01;48624.56;;;-141.90;100.00
5298;BME280;14738;42.668;23.250;2023-12-20T10:12:27;48676.19;;;-141.90;100.00
5298;BME280;14738;42.668;23.250;2023-12-20T10:14:52;48640.44;;;-141.90;100.00
5298;BME280;14738;42.668;23.250;2023-12-20T10:17:18;48656.34;;;-141.90;100.00
5298;BME280;14738;42.668;23.250;2023-12-20T10:19:43;48624.56;;;-141.90;100.00
5298;BME280;14738;42.668;23.250;2023-12-20T10:22:10;48644.41;;;-141.90;100.00
5298;BME280;14738;42.668;23.250;2023-12-20T10:24:35;48640.44;;;-141.90;100.00
5298;BME280;14738;42.668;23.250;2023-12-20T10:27:02;48580.88;;;-141.90;100.00
5298;BME280;14738;42.668;23.250;2023-12-20T10:29:32;48624.56;;;-141.90;100.00
5298;BME280;14738;42.668;23.250;2023-12-20T10:31:57;48628.53;;;-141.90;100.00
5298;BME280;14738;42.668;23.250;2023-12-20T10:34:23;48618.59;;;-141.90;100.00
5298;BME280;14738;42.668;23.250;2023-12-20T10:36:49;48632.50;;;-141.90;100.00
5298;BME280;14738;42.668;23.250;2023-12-20T10:39:15;48616.63;;;-141.90;100.00
5298;BME280;14738;42.668;23.250;2023-12-20T10:41:41;48652.38;;;-141.90;100.00
5298;BME280;14738;42.668;23.250;2023-12-20T10:44:08;48650.38;;;-141.90;100.00
5298;BME280;14738;42.668;23.250;2023-12-20T10:46:37;48644.41;;;-141.90;100.00
5298;BME280;14738;42.668;23.250;2023-12-20T10:49:05;48618.59;;;-141.90;100.00
5298;BME280;14738;42.668;23.250;2023-12-20T10:51:31;48642.44;;;-141.90;100.00
5298;BME280;14738;42.668;23.250;2023-12-20T10:53:56;48628.53;;;-141.90;100.00
5298;BME280;14738;42.668;23.250;2023-12-20T10:56:22;48658.31;;;-141.90;100.00
5298;BME280;14738;42.668;23.250;2023-12-20T10:58:51;48630.53;;;-141.90;100.00
5298;BME280;14738;42.668;23.250;2023-12-20T11:01:18;48658.31;;;-141.90;100.00
5298;BME280;14738;42.668;23.250;2023-12-20T11:03:51;48624.56;;;-141.90;100.00
5298;BME280;14738;42.668;23.250;2023-12-20T11:09:26;48644.41;;;-141.90;100.00
5298;BME280;14738;42.668;23.250;2023-12-20T11:14:42;48644.41;;;-141.90;100.00
5298;BME280;14738;42.668;23.250;2023-12-20T11:17:11;48642.44;;;-141.90;100.00
5298;BME280;14738;42.668;23.250;2023-12-20T11:22:22;48614.63;;;-141.90;100.00
5298;BME280;14738;42.668;23.250;2023-12-20T11:24:49;48648.38;;;-141.90;100.00
5298;BME280;14738;42.668;23.250;2023-12-20T11:27:15;48600.75;;;-141.90;100.00
5298;BME280;14738;42.668;23.250;2023-12-20T11:29:41;48616.63;;;-141.90;100.00
5298;BME280;14738;42.668;23.250;2023-12-20T11:35:39;48622.59;;;-141.90;100.00
5298;BME280;14738;42.668;23.250;2023-12-20T11:37:40;48610.66;;;-141.90;100.00
5298;BME280;14738;42.668;23.250;2023-12-20T11:40:11;48608.69;;;-141.90;100.00
5298;BME280;14738;42.668;23.250;2023-12-20T11:42:38;48622.59;;;-141.90;100.00
5298;BME280;14738;42.668;23.250;2023-12-20T11:45:09;48604.72;;;-141.90;100.00
5298;BME280;14738;42.668;23.250;2023-12-20T11:47:34;48622.59;;;-141.90;100.00
5298;BME280;14738;42.668;23.250;2023-12-20T11:50:00;48608.69;;;-141.90;100.00
5298;BME280;14738;42.668;23.250;2023-12-20T11:52:30;48608.69;;;-141.90;100.00
5298;BME280;14738;42.668;23.250;2023-12-20T11:54:56;48614.63;;;-141.90;100.00
5298;BME280;14738;42.668;23.250;2023-12-20T11:57:21;48656.34;;;-141.90;100.00
5298;BME280;14738;42.668;23.250;2023-12-20T11:59:47;48616.63;;;-141.90;100.00
5298;BME280;14738;42.668;23.250;2023-12-20T12:02:12;48610.66;;;-141.90;100.00
5298;BME280;14738;42.668;23.250;2023-12-20T12:04:41;48624.56;;;-141.90;100.00
5298;BME280;14738;42.668;23.250;2023-12-20T12:07:07;48608.69;;;-141.90;100.00
5298;BME280;14738;42.668;23.250;2023-12-20T12:09:32;48626.56;;;-141.90;100.00
5298;BME280;14738;42.668;23.250;2023-12-20T12:11:58;48606.69;;;-141.90;100.00
5298;BME280;14738;42.668;23.250;2023-12-20T12:14:24;48626.56;;;-141.90;100.00
5298;BME280;14738;42.668;23.250;2023-12-20T12:16:49;48612.66;;;-141.90;100.00
5298;BME280;14738;42.668;23.250;2023-12-20T12:19:25;48624.56;;;-141.90;100.00
5298;BME280;14738;42.668;23.250;2023-12-20T12:21:51;48588.84;;;-141.90;100.00
5298;BME280;14738;42.668;23.250;2023-12-20T12:24:29;48628.53;;;-141.90;100.00
5298;BME280;14738;42.668;23.250;2023-12-20T12:26:57;48584.84;;;-141.90;100.00
5298;BME280;14738;42.668;23.250;2023-12-20T12:29:22;48604.72;;;-141.90;100.00
5298;BME280;14738;42.668;23.250;2023-12-20T12:31:50;48646.41;;;-141.90;100.00
5298;BME280;14738;42.668;23.250;2023-12-20T12:34:15;48600.75;;;-141.90;100.00
5298;BME280;14738;42.668;23.250;2023-12-20T12:36:41;48616.63;;;-141.90;100.00